Terminal Aerodrome Forecast
Issued by NWS Des Moines, IA

Home | Current Version | Previous Version | Text Only | Print | Product List | Glossary On
Versions: 1 2 3 4 5 6 7 8 9 10 11 12 13 14 15 16 17 18 19 20 21 22 23 24 25 26
000
FTUS43 KDMX 282359 AAA
TAFDSM
TAF AMD
KDSM 282359Z 2900/2924 VRB05KT P6SM VCSH BKN035 BKN080 BKN110
     FM290100 14005KT P6SM SCT050 SCT190 OVC250
     FM291100 13004KT 5SM BR BKN150 BKN250
     FM291300 16007KT P6SM VCSH SCT015 BKN140
     FM291700 14005KT P6SM VCTS SCT035CB BKN130=

USA.gov is the U.S. government's official web portal to all federal, state and local government web resources and services.